Darstellungsparameter: Aktuell verwendete Einstellungen:
Skalierung der Graphiken ... ?
xyx+y,   Skalierungsfaktor:      Skalierung: Modus: x, Faktor: 1
Darstellungszeitraum ... ?
Vom - - bis: - -   Zeitraum: 01.06.2011 - 07.06.2011
Min/Max/Avg-Anzeige ... ?
Zeige MMA aktuell
Zeige MMA Monat
Zeige MMA alles
Zeige --A aktuell
Zeige --A Monat
Zeige --A alles
Keine MMA-Anzeige
MMA:
Keine MMA-Graphiken
MMA-Basis: 01.06.2011 - 07.06.2011
Quicknavigation für Darstellung... ?
Tage:      1T, 2T, 3T, 5T -1T -2T -3T -5T +1T +2T +3T +5T
Wochen: 1W, 2W, 3W -1W -2W -3W +1W +2W +3W
Monate: 1M, 3M, 6M -1M -3M -6M +1M +3M +6M
Jahre:    1J, 3J, 5J, 10J -1J -3J -5J -10J +1J +3J +5J +10J
Nutze für die Darstellung ... ?
Originaldaten oder Mittelwerte auf ...
Stundenbasis Tagesbasis Wochenbasis
Monatsbasis Jahresbasis      Datenbasis: Original-Daten
Darstellen als:
Statistik (Auto) Statistik J:M      Darstellung:
Zur Graphik,    zurück zur Übersicht aller Sensoren.
 
Tabellarische Datenbersicht: ?
 
Sensor: Nr:Datum:Temp:Abs-Feuchte:Windchill:Wind:
Aussen-T/F 1 01-06-2011 00:01:05 10.5 C 8.53 g/m*3 10.5 C 0 km/h
2 01-06-2011 00:13:05 10.6 C 8.59 g/m*3 10.6 C 0 km/h
3 01-06-2011 00:25:05 10.7 C 8.55 g/m*3 10.7 C 0 km/h
4 01-06-2011 00:37:05 10.8 C 8.6 g/m*3 10.8 C 0 km/h
5 01-06-2011 00:49:05 10.6 C 8.49 g/m*3 10.6 C 0 km/h
6 01-06-2011 01:01:05 10.5 C 8.53 g/m*3 10.5 C 0 km/h
7 01-06-2011 01:13:05 10.4 C 8.48 g/m*3 10.4 C 0 km/h
8 01-06-2011 01:25:05 10.5 C 8.53 g/m*3 10.5 C 0 km/h
9 01-06-2011 01:37:05 10.5 C 8.53 g/m*3 10.5 C 0 km/h
10 01-06-2011 01:49:05 10.3 C 8.43 g/m*3 10.3 C 0 km/h
11 01-06-2011 02:01:06 10.4 C 8.48 g/m*3 10.4 C 0 km/h
12 01-06-2011 02:13:06 10.4 C 8.48 g/m*3 10.4 C 0 km/h
13 01-06-2011 02:25:06 10.1 C 8.32 g/m*3 10.1 C 0 km/h
14 01-06-2011 02:37:06 10.3 C 8.43 g/m*3 10.3 C 0 km/h
15 01-06-2011 02:49:06 10.2 C 8.37 g/m*3 10.2 C 0 km/h
16 01-06-2011 03:01:06 10.3 C 8.43 g/m*3 10.3 C 0 km/h
17 01-06-2011 03:13:06 10.4 C 8.48 g/m*3 10.4 C 0 km/h
18 01-06-2011 03:25:06 10.2 C 8.09 g/m*3 10.2 C 0 km/h
19 01-06-2011 03:37:06 10.1 C 7.85 g/m*3 10.1 C 0 km/h
20 01-06-2011 03:49:06 10.1 C 7.75 g/m*3 10.1 C 0 km/h
21 01-06-2011 04:01:06 10 C 7.71 g/m*3 10 C 0 km/h
22 01-06-2011 04:13:06 10.1 C 7.66 g/m*3 10.1 C 0 km/h
23 01-06-2011 04:25:06 10.1 C 7.56 g/m*3 10.1 C 0 km/h
24 01-06-2011 04:37:06 9.8 C 7.52 g/m*3 9.8 C 0 km/h
25 01-06-2011 04:49:06 9.7 C 7.65 g/m*3 9.7 C 0 km/h
Sensor: Nr:Datum:Temp:Abs-Feuchte:Windchill:Wind:
Aussen-T/F 26 01-06-2011 05:01:06 9.5 C 7.55 g/m*3 9.5 C 0 km/h
27 01-06-2011 05:13:06 9.6 C 7.69 g/m*3 9.6 C 0 km/h
28 01-06-2011 05:25:06 9.5 C 7.65 g/m*3 9.5 C 0 km/h
29 01-06-2011 05:37:06 9.5 C 7.65 g/m*3 9.5 C 0 km/h
30 01-06-2011 05:49:06 9.5 C 7.65 g/m*3 9.5 C 0 km/h
31 01-06-2011 06:01:06 9.7 C 7.74 g/m*3 9.7 C 0 km/h
32 01-06-2011 06:13:07 9.8 C 7.79 g/m*3 9.8 C 0 km/h
33 01-06-2011 06:25:07 9.8 C 7.7 g/m*3 9.8 C 0 km/h
34 01-06-2011 06:37:07 9.9 C 7.66 g/m*3 9.9 C 0 km/h
35 01-06-2011 06:49:07 10.1 C 7.47 g/m*3 10.1 C 0 km/h
36 01-06-2011 07:01:07 10.3 C 7.37 g/m*3 10.3 C 0 km/h
37 01-06-2011 07:13:07 10.4 C 7.32 g/m*3 10.4 C 0 km/h
38 01-06-2011 07:25:03 10.5 C 7.18 g/m*3 10.5 C 0 km/h
39 01-06-2011 07:37:04 10.6 C 7.12 g/m*3 10.6 C 0 km/h
40 01-06-2011 07:49:02 10.4 C 7.04 g/m*3 10.4 C 0 km/h
41 01-06-2011 08:01:01 10.2 C 6.95 g/m*3 10.2 C 0 km/h
42 01-06-2011 08:13:01 10.6 C 7.12 g/m*3 10.6 C 0 km/h
43 01-06-2011 08:25:02 11 C 7.01 g/m*3 11 C 0 km/h
44 01-06-2011 08:37:01 11.3 C 7.04 g/m*3 11.3 C 0 km/h
45 01-06-2011 08:49:01 11.5 C 6.92 g/m*3 11.5 C 0 km/h
46 01-06-2011 09:01:02 11.6 C 6.86 g/m*3 11.6 C 0 km/h
47 01-06-2011 09:13:02 11.9 C 6.88 g/m*3 11.9 C 0 km/h
48 01-06-2011 09:25:02 12 C 6.71 g/m*3 12 C 0 km/h
49 01-06-2011 09:37:02 12.4 C 6.77 g/m*3 12.4 C 0 km/h
50 01-06-2011 09:49:02 12.2 C 6.58 g/m*3 12.2 C 0 km/h
Sensor: Nr:Datum:Temp:Abs-Feuchte:Windchill:Wind:
Aussen-T/F 51 01-06-2011 10:01:01 12.2 C 6.58 g/m*3 12.2 C 0 km/h
52 01-06-2011 10:13:01 12.7 C 6.46 g/m*3 12.7 C 0 km/h
53 01-06-2011 10:25:02 12.7 C 5.9 g/m*3 12.7 C 0 km/h
54 01-06-2011 10:37:02 13.2 C 6.32 g/m*3 13.2 C 0 km/h
55 01-06-2011 10:49:02 13.2 C 6.32 g/m*3 13.2 C 0 km/h
56 01-06-2011 11:01:02 13.2 C 6.32 g/m*3 13.2 C 0 km/h
57 01-06-2011 11:13:02 13.2 C 6.32 g/m*3 13.2 C 0 km/h
58 01-06-2011 11:25:02 13.2 C 6.32 g/m*3 13.2 C 0 km/h
59 01-06-2011 11:37:02 13.2 C 6.32 g/m*3 13.2 C 0 km/h
60 01-06-2011 11:49:02 16 C 5.45 g/m*3 16 C 0 km/h
61 01-06-2011 12:01:03 16 C 5.45 g/m*3 16 C 0 km/h
62 01-06-2011 12:13:03 16 C 5.45 g/m*3 16 C 0 km/h
63 01-06-2011 12:25:02 17.1 C 5.68 g/m*3 17.1 C 0 km/h
64 01-06-2011 12:37:02 17.5 C 5.52 g/m*3 17.5 C 0 km/h
65 01-06-2011 12:49:02 18.1 C 5.56 g/m*3 18.1 C 0 km/h
66 01-06-2011 13:01:01 18.7 C 5.76 g/m*3 18.7 C 0 km/h
67 01-06-2011 13:13:01 17.7 C 5.28 g/m*3 17.7 C 0 km/h
68 01-06-2011 13:25:01 17.7 C 5.28 g/m*3 17.7 C 0 km/h
69 01-06-2011 13:37:01 18.5 C 5.54 g/m*3 18.5 C 0 km/h
70 01-06-2011 13:49:02 18.5 C 5.54 g/m*3 18.5 C 0 km/h
71 01-06-2011 14:01:02 18.5 C 5.54 g/m*3 18.5 C 0 km/h
72 01-06-2011 14:13:02 18.5 C 5.54 g/m*3 18.5 C 0 km/h
73 01-06-2011 14:25:02 20.6 C 5.01 g/m*3 20.6 C 0 km/h
74 01-06-2011 14:37:03 21 C 4.76 g/m*3 21 C 0 km/h
75 01-06-2011 14:49:02 19.8 C 4.95 g/m*3 19.8 C 0 km/h
Sensor: Nr:Datum:Temp:Abs-Feuchte:Windchill:Wind:
Aussen-T/F 76 01-06-2011 15:01:03 20.3 C 5.1 g/m*3 20.3 C 0 km/h
77 01-06-2011 15:13:03 23 C 4.93 g/m*3 23 C 0 km/h
78 01-06-2011 15:25:02 20.7 C 4.86 g/m*3 20.7 C 0 km/h
79 01-06-2011 15:37:02 20.5 C 4.98 g/m*3 20.5 C 0 km/h
80 01-06-2011 15:49:02 21.3 C 4.66 g/m*3 21.3 C 0 km/h
81 01-06-2011 16:01:03 22.1 C 3.9 g/m*3 22.1 C 0 km/h
82 01-06-2011 16:13:03 21.1 C 4.24 g/m*3 21.1 C 0 km/h
83 01-06-2011 16:25:03 21.7 C 4.39 g/m*3 21.7 C 0 km/h
84 01-06-2011 16:37:02 20.9 C 4.55 g/m*3 20.9 C 0 km/h
85 01-06-2011 16:49:02 21.7 C 4.77 g/m*3 21.7 C 0 km/h
86 01-06-2011 17:01:02 20.9 C 4.74 g/m*3 20.9 C 0 km/h
87 01-06-2011 17:13:02 21.6 C 4.74 g/m*3 21.6 C 0 km/h
88 01-06-2011 17:25:02 20.3 C 4.75 g/m*3 20.3 C 0 km/h
89 01-06-2011 17:37:03 19.7 C 5.09 g/m*3 19.7 C 0 km/h
90 01-06-2011 17:49:02 19.5 C 5.03 g/m*3 19.5 C 0 km/h
91 01-06-2011 18:01:03 19.6 C 5.06 g/m*3 19.6 C 0 km/h
92 01-06-2011 18:13:03 19.8 C 5.12 g/m*3 19.8 C 0 km/h
93 01-06-2011 18:25:02 19.9 C 5.15 g/m*3 19.9 C 0 km/h
94 01-06-2011 18:37:03 20.1 C 5.21 g/m*3 20.1 C 0 km/h
95 01-06-2011 18:49:02 20.1 C 5.56 g/m*3 20.1 C 0 km/h
96 01-06-2011 19:01:02 19.5 C 5.2 g/m*3 19.5 C 0 km/h
97 01-06-2011 19:13:02 19.8 C 5.64 g/m*3 19.8 C 0 km/h
98 01-06-2011 19:25:01 21 C 5.31 g/m*3 21 C 0 km/h
99 01-06-2011 19:37:02 22.8 C 4.47 g/m*3 22.8 C 0 km/h
100 01-06-2011 19:49:02 20 C 5.01 g/m*3 20 C 0 km/h
Sensor: Nr:Datum:Temp:Abs-Feuchte:Windchill:Wind:
Aussen-T/F 101 01-06-2011 20:01:02 18.9 C 5.18 g/m*3 18.9 C 0 km/h
102 01-06-2011 20:13:02 18.5 C 5.22 g/m*3 18.5 C 0 km/h
103 01-06-2011 20:25:02 18 C 5.38 g/m*3 18 C 0 km/h
104 01-06-2011 20:37:02 17.7 C 6.04 g/m*3 17.7 C 0 km/h
105 01-06-2011 20:49:02 17.9 C 6.41 g/m*3 17.9 C 0 km/h
106 01-06-2011 21:01:02 17.5 C 6.26 g/m*3 17.5 C 0 km/h
107 01-06-2011 21:13:02 17 C 5.93 g/m*3 17 C 0 km/h
108 01-06-2011 21:25:03 17.2 C 5.56 g/m*3 17.2 C 0 km/h
109 01-06-2011 21:37:03 17 C 5.64 g/m*3 17 C 0 km/h
110 01-06-2011 21:49:03 16.9 C 5.9 g/m*3 16.9 C 0 km/h
111 01-06-2011 22:01:03 16.6 C 5.93 g/m*3 16.6 C 0 km/h
112 01-06-2011 22:13:03 16.6 C 5.93 g/m*3 16.6 C 0 km/h
113 01-06-2011 22:25:02 16.2 C 7.03 g/m*3 16.2 C 0 km/h
114 01-06-2011 22:37:02 16.2 C 7.03 g/m*3 16.2 C 0 km/h
115 01-06-2011 22:49:02 15.8 C 6.19 g/m*3 15.8 C 0 km/h
116 01-06-2011 23:02:18 15.8 C 6.33 g/m*3 15.8 C 0 km/h
117 01-06-2011 23:14:18 15.9 C 5.96 g/m*3 15.9 C 0 km/h
118 01-06-2011 23:26:18 15.8 C 6.06 g/m*3 15.8 C 0 km/h
119 01-06-2011 23:38:18 15.8 C 6.06 g/m*3 15.8 C 0 km/h
120 01-06-2011 23:50:18 15.7 C 6.02 g/m*3 15.7 C 0 km/h
121 02-06-2011 00:02:18 15.5 C 6.21 g/m*3 15.5 C 0 km/h
122 02-06-2011 00:14:19 15.2 C 6.36 g/m*3 15.2 C 0 km/h
123 02-06-2011 00:26:19 15.2 C 6.23 g/m*3 15.2 C 0 km/h
124 02-06-2011 00:38:19 14.8 C 7.22 g/m*3 14.8 C 0 km/h
125 02-06-2011 00:50:19 14.3 C 7.25 g/m*3 14.3 C 0 km/h
Sensor: Nr:Datum:Temp:Abs-Feuchte:Windchill:Wind:
Aussen-T/F 126 02-06-2011 01:02:19 14.1 C 7.28 g/m*3 14.1 C 0 km/h
127 02-06-2011 01:14:19 13.9 C 7.43 g/m*3 13.9 C 0 km/h
128 02-06-2011 01:26:19 13.8 C 7.39 g/m*3 13.8 C 0 km/h
129 02-06-2011 01:38:19 13.8 C 7.27 g/m*3 13.8 C 0 km/h
130 02-06-2011 01:50:19 13.7 C 7.34 g/m*3 13.7 C 0 km/h
131 02-06-2011 02:02:19 13.7 C 7.46 g/m*3 13.7 C 0 km/h
132 02-06-2011 02:14:19 13.5 C 7.37 g/m*3 13.5 C 0 km/h
133 02-06-2011 02:26:19 13.5 C 7.25 g/m*3 13.5 C 0 km/h
134 02-06-2011 02:38:19 13.3 C 6.93 g/m*3 13.3 C 0 km/h
135 02-06-2011 02:50:19 13.3 C 7.16 g/m*3 13.3 C 0 km/h
136 02-06-2011 03:02:19 13.1 C 6.85 g/m*3 13.1 C 0 km/h
137 02-06-2011 03:14:19 12.7 C 6.68 g/m*3 12.7 C 0 km/h
138 02-06-2011 03:26:19 12.2 C 6.58 g/m*3 12.2 C 0 km/h
139 02-06-2011 03:38:19 11.4 C 6.47 g/m*3 11.4 C 0 km/h
140 02-06-2011 03:50:19 10.7 C 6.38 g/m*3 10.7 C 0 km/h
141 02-06-2011 04:02:19 10.4 C 6.36 g/m*3 10.4 C 0 km/h
142 02-06-2011 04:14:20 10.5 C 6.3 g/m*3 10.5 C 0 km/h
143 02-06-2011 04:26:20 10.7 C 6.38 g/m*3 10.7 C 0 km/h
144 02-06-2011 04:38:20 10.6 C 6.25 g/m*3 10.6 C 0 km/h
145 02-06-2011 04:50:20 10 C 6.2 g/m*3 10 C 0 km/h
146 02-06-2011 05:02:20 9.6 C 6.23 g/m*3 9.6 C 0 km/h
147 02-06-2011 05:14:20 9.2 C 6.16 g/m*3 9.2 C 0 km/h
148 02-06-2011 05:26:20 9.1 C 6.21 g/m*3 9.1 C 0 km/h
149 02-06-2011 05:38:20 8.9 C 6.31 g/m*3 8.9 C 0 km/h
150 02-06-2011 05:50:20 8.7 C 6.14 g/m*3 8.7 C 0 km/h
Sensor: Nr:Datum:Temp:Abs-Feuchte:Windchill:Wind:
Aussen-T/F 151 02-06-2011 06:02:20 8.6 C 6.19 g/m*3 8.6 C 0 km/h
152 02-06-2011 06:14:20 8.8 C 6.35 g/m*3 8.8 C 0 km/h
153 02-06-2011 06:26:20 9 C 6.35 g/m*3 9 C 0 km/h
154 02-06-2011 06:38:20 8.9 C 6.48 g/m*3 8.9 C 0 km/h
155 02-06-2011 06:50:20 8.8 C 6.44 g/m*3 8.8 C 0 km/h
156 02-06-2011 07:02:04 8.9 C 6.57 g/m*3 8.9 C 0 km/h
157 02-06-2011 07:14:04 9.3 C 6.56 g/m*3 9.3 C 0 km/h
158 02-06-2011 07:26:03 9.7 C 6.64 g/m*3 9.7 C 0 km/h
159 02-06-2011 07:38:04 10 C 6.58 g/m*3 10 C 0 km/h
160 02-06-2011 07:50:03 10 C 6.48 g/m*3 10 C 0 km/h
161 02-06-2011 08:02:02 10 C 6.58 g/m*3 10 C 0 km/h
162 02-06-2011 08:14:02 10.5 C 6.79 g/m*3 10.5 C 0 km/h
163 02-06-2011 08:26:03 10.8 C 6.92 g/m*3 10.8 C 0 km/h
164 02-06-2011 08:38:03 11.2 C 6.89 g/m*3 11.2 C 0 km/h
165 02-06-2011 08:50:01 11.8 C 6.95 g/m*3 11.8 C 0 km/h
166 02-06-2011 09:02:02 12.3 C 6.84 g/m*3 12.3 C 0 km/h
167 02-06-2011 09:14:02 13 C 6.8 g/m*3 13 C 0 km/h
168 02-06-2011 09:26:02 13.5 C 6.32 g/m*3 13.5 C 0 km/h
169 02-06-2011 09:38:02 13.5 C 6.32 g/m*3 13.5 C 0 km/h
170 02-06-2011 09:50:02 13.5 C 6.32 g/m*3 13.5 C 0 km/h
171 02-06-2011 10:02:02 13.5 C 6.32 g/m*3 13.5 C 0 km/h
172 02-06-2011 10:14:02 13.5 C 6.32 g/m*3 13.5 C 0 km/h
173 02-06-2011 10:26:02 13.5 C 6.32 g/m*3 13.5 C 0 km/h
174 02-06-2011 10:38:02 13.5 C 6.32 g/m*3 13.5 C 0 km/h
175 02-06-2011 10:50:02 13.5 C 6.32 g/m*3 13.5 C 0 km/h
Sensor: Nr:Datum:Temp:Abs-Feuchte:Windchill:Wind:
Aussen-T/F 176 02-06-2011 11:02:02 13.5 C 6.32 g/m*3 13.5 C 0 km/h
177 02-06-2011 11:14:02 19.1 C 4.26 g/m*3 19.1 C 0 km/h
178 02-06-2011 11:26:01 19.2 C 4.12 g/m*3 19.2 C 0 km/h
179 02-06-2011 11:38:03 19.3 C 4.15 g/m*3 19.3 C 0 km/h
180 02-06-2011 11:50:02 19.3 C 4.15 g/m*3 19.3 C 0 km/h
181 02-06-2011 12:02:04 19.3 C 4.15 g/m*3 19.3 C 0 km/h
182 02-06-2011 12:14:04 19.3 C 4.15 g/m*3 19.3 C 0 km/h
183 02-06-2011 12:26:02 20.1 C 4 g/m*3 20.1 C 0 km/h
184 02-06-2011 12:38:02 20.1 C 3.82 g/m*3 20.1 C 0 km/h
185 02-06-2011 12:50:02 20.5 C 3.74 g/m*3 20.5 C 0 km/h
186 02-06-2011 13:02:03 21.1 C 3.87 g/m*3 21.1 C 0 km/h
187 02-06-2011 13:14:03 21.4 C 3.75 g/m*3 21.4 C 0 km/h
188 02-06-2011 13:26:02 25.3 C 4.68 g/m*3 25.3 C 0 km/h
189 02-06-2011 13:38:03 27.9 C 5.41 g/m*3 27.9 C 0 km/h
190 02-06-2011 13:50:02 30 C 6.06 g/m*3 30 C 0 km/h
191 02-06-2011 14:02:02 30.1 C 6.1 g/m*3 30.1 C 0 km/h
192 02-06-2011 14:14:02 30.4 C 6.2 g/m*3 30.4 C 0 km/h
193 02-06-2011 14:26:02 30.3 C 6.16 g/m*3 30.3 C 0 km/h
194 02-06-2011 14:38:02 30.2 C 6.13 g/m*3 30.2 C 0 km/h
195 02-06-2011 14:50:02 30.1 C 6.1 g/m*3 30.1 C 0 km/h
196 02-06-2011 15:02:03 30.1 C 6.1 g/m*3 30.1 C 0 km/h
197 02-06-2011 15:14:03 30 C 6.06 g/m*3 30 C 0 km/h
198 02-06-2011 15:26:03 30.3 C 6.16 g/m*3 30.3 C 0 km/h
199 02-06-2011 15:38:03 30.7 C 6.3 g/m*3 30.7 C 0 km/h
200 02-06-2011 15:50:02 30.7 C 6.3 g/m*3 30.7 C 0 km/h
Sensor: Nr:Datum:Temp:Abs-Feuchte:Windchill:Wind:
Aussen-T/F 201 02-06-2011 16:02:03 30.1 C 6.1 g/m*3 30.1 C 0 km/h
202 02-06-2011 16:14:03 30.4 C 6.2 g/m*3 30.4 C 0 km/h
203 02-06-2011 16:26:02 30.1 C 6.1 g/m*3 30.1 C 0 km/h
204 02-06-2011 16:38:02 31.2 C 6.47 g/m*3 31.2 C 0 km/h
205 02-06-2011 16:50:03 31.3 C 6.5 g/m*3 31.3 C 0 km/h
206 02-06-2011 17:02:03 31.1 C 6.43 g/m*3 31.1 C 0 km/h
207 02-06-2011 17:14:03 30.7 C 6.3 g/m*3 30.7 C 0 km/h
208 02-06-2011 17:26:03 30.2 C 6.13 g/m*3 30.2 C 0 km/h
209 02-06-2011 17:38:02 30.8 C 6.33 g/m*3 30.8 C 0 km/h
210 02-06-2011 17:50:02 30.6 C 6.26 g/m*3 30.6 C 0 km/h
211 02-06-2011 18:02:01 30.6 C 6.26 g/m*3 30.6 C 0 km/h
212 02-06-2011 18:14:01 30.6 C 6.26 g/m*3 30.6 C 0 km/h
213 02-06-2011 18:26:01 30.6 C 6.26 g/m*3 30.6 C 0 km/h
214 02-06-2011 18:38:02 30.6 C 6.26 g/m*3 30.6 C 0 km/h
215 02-06-2011 18:50:01 30.6 C 6.26 g/m*3 30.6 C 0 km/h
216 02-06-2011 19:02:02 30.6 C 6.26 g/m*3 30.6 C 0 km/h
217 02-06-2011 19:14:02 30.6 C 6.26 g/m*3 30.6 C 0 km/h
218 02-06-2011 19:26:02 30.6 C 6.26 g/m*3 30.6 C 0 km/h
219 02-06-2011 19:38:02 30.6 C 6.26 g/m*3 30.6 C 0 km/h
220 02-06-2011 19:50:01 30.6 C 6.26 g/m*3 30.6 C 0 km/h
221 02-06-2011 20:02:02 30.6 C 6.26 g/m*3 30.6 C 0 km/h
222 02-06-2011 20:14:02 30.6 C 6.26 g/m*3 30.6 C 0 km/h
223 02-06-2011 20:26:02 30.6 C 6.26 g/m*3 30.6 C 0 km/h
224 02-06-2011 20:38:01 30.6 C 6.26 g/m*3 30.6 C 0 km/h
225 02-06-2011 20:50:02 30.6 C 6.26 g/m*3 30.6 C 0 km/h
Sensor: Nr:Datum:Temp:Abs-Feuchte:Windchill:Wind:
Aussen-T/F 226 02-06-2011 21:02:02 30.6 C 6.26 g/m*3 30.6 C 0 km/h
227 02-06-2011 21:14:02 30.6 C 6.26 g/m*3 30.6 C 0 km/h
228 02-06-2011 21:26:02 30.6 C 6.26 g/m*3 30.6 C 0 km/h
229 02-06-2011 21:38:02 30.6 C 6.26 g/m*3 30.6 C 0 km/h
230 02-06-2011 21:50:02 30.6 C 6.26 g/m*3 30.6 C 0 km/h
231 02-06-2011 22:02:02 30.6 C 6.26 g/m*3 30.6 C 0 km/h
232 02-06-2011 22:14:02 30.6 C 6.26 g/m*3 30.6 C 0 km/h
233 02-06-2011 22:27:02 16 C 5.59 g/m*3 16 C 0 km/h
234 02-06-2011 22:39:02 16 C 5.59 g/m*3 16 C 0 km/h
235 02-06-2011 22:51:02 16 C 5.59 g/m*3 16 C 0 km/h
236 02-06-2011 23:03:02 16 C 5.59 g/m*3 16 C 0 km/h
237 02-06-2011 23:15:02 16 C 5.59 g/m*3 16 C 0 km/h
238 02-06-2011 23:27:03 16 C 5.59 g/m*3 16 C 0 km/h
239 02-06-2011 23:39:03 16 C 5.59 g/m*3 16 C 0 km/h
240 02-06-2011 23:51:03 16 C 5.59 g/m*3 16 C 0 km/h
241 03-06-2011 00:03:03 16 C 5.59 g/m*3 16 C 0 km/h
242 03-06-2011 00:15:03 16 C 5.59 g/m*3 16 C 0 km/h
243 03-06-2011 00:27:03 16 C 5.59 g/m*3 16 C 0 km/h
244 03-06-2011 00:39:03 16 C 5.59 g/m*3 16 C 0 km/h
245 03-06-2011 00:51:03 16 C 5.59 g/m*3 16 C 0 km/h
246 03-06-2011 01:03:03 13.3 C 5.66 g/m*3 13.3 C 0 km/h
247 03-06-2011 01:15:03 13.2 C 5.63 g/m*3 13.2 C 0 km/h
248 03-06-2011 01:27:03 13.1 C 5.82 g/m*3 13.1 C 0 km/h
249 03-06-2011 01:39:03 12.9 C 5.97 g/m*3 12.9 C 0 km/h
250 03-06-2011 01:51:03 12.8 C 5.94 g/m*3 12.8 C 0 km/h
Sensor: Nr:Datum:Temp:Abs-Feuchte:Windchill:Wind:
Aussen-T/F 251 03-06-2011 02:03:03 12.8 C 5.71 g/m*3 12.8 C 0 km/h
252 03-06-2011 02:15:03 12.6 C 5.64 g/m*3 12.6 C 0 km/h
253 03-06-2011 02:27:03 12.4 C 5.68 g/m*3 12.4 C 0 km/h
254 03-06-2011 02:39:03 12.2 C 5.72 g/m*3 12.2 C 0 km/h
255 03-06-2011 02:51:03 11.9 C 5.82 g/m*3 11.9 C 0 km/h
256 03-06-2011 03:03:03 11.9 C 5.93 g/m*3 11.9 C 0 km/h
257 03-06-2011 03:15:03 11.7 C 5.96 g/m*3 11.7 C 0 km/h
258 03-06-2011 03:27:03 11.7 C 5.86 g/m*3 11.7 C 0 km/h
259 03-06-2011 03:39:04 11.6 C 5.72 g/m*3 11.6 C 0 km/h
260 03-06-2011 03:51:04 11.5 C 5.68 g/m*3 11.5 C 0 km/h
261 03-06-2011 04:03:04 11.6 C 5.72 g/m*3 11.6 C 0 km/h
262 03-06-2011 04:15:04 11.4 C 5.65 g/m*3 11.4 C 0 km/h
263 03-06-2011 04:27:04 11.3 C 5.71 g/m*3 11.3 C 0 km/h
264 03-06-2011 04:39:04 11.4 C 5.65 g/m*3 11.4 C 0 km/h
265 03-06-2011 04:51:04 11 C 5.51 g/m*3 11 C 0 km/h
266 03-06-2011 05:03:04 11 C 5.61 g/m*3 11 C 0 km/h
267 03-06-2011 05:15:04 11.2 C 5.68 g/m*3 11.2 C 0 km/h
268 03-06-2011 05:27:04 11.2 C 5.57 g/m*3 11.2 C 0 km/h
269 03-06-2011 05:39:04 11.5 C 5.78 g/m*3 11.5 C 0 km/h
270 03-06-2011 05:51:04 11.5 C 5.78 g/m*3 11.5 C 0 km/h
271 03-06-2011 06:03:04 11.7 C 5.96 g/m*3 11.7 C 0 km/h
272 03-06-2011 06:15:04 12.1 C 5.9 g/m*3 12.1 C 0 km/h
273 03-06-2011 06:27:04 12.5 C 6.38 g/m*3 12.5 C 0 km/h
274 03-06-2011 06:39:04 12.8 C 6.61 g/m*3 12.8 C 0 km/h
275 03-06-2011 06:51:04 12.9 C 6.42 g/m*3 12.9 C 0 km/h
Sensor: Nr:Datum:Temp:Abs-Feuchte:Windchill:Wind:
Aussen-T/F 276 03-06-2011 07:03:03 13.2 C 6.32 g/m*3 13.2 C 0 km/h
277 03-06-2011 07:15:01 13.6 C 6.36 g/m*3 13.6 C 0 km/h
278 03-06-2011 07:27:01 14.4 C 6.06 g/m*3 14.4 C 0 km/h
279 03-06-2011 07:39:02 14.9 C 6.37 g/m*3 14.9 C 0 km/h
280 03-06-2011 07:51:02 15 C 6.41 g/m*3 15 C 0 km/h
281 03-06-2011 08:03:03 15.1 C 6.58 g/m*3 15.1 C 0 km/h
282 03-06-2011 08:15:02 15.6 C 6.52 g/m*3 15.6 C 0 km/h
283 03-06-2011 08:27:02 16.2 C 6.21 g/m*3 16.2 C 0 km/h
284 03-06-2011 08:39:03 17 C 5.79 g/m*3 17 C 0 km/h
285 03-06-2011 08:51:02 17.7 C 6.04 g/m*3 17.7 C 0 km/h
286 03-06-2011 09:03:02 18.3 C 6.1 g/m*3 18.3 C 0 km/h
287 03-06-2011 09:15:02 18.6 C 5.89 g/m*3 18.6 C 0 km/h
288 03-06-2011 09:27:02 18.9 C 5.99 g/m*3 18.9 C 0 km/h
289 03-06-2011 09:39:02 19.5 C 5.87 g/m*3 19.5 C 0 km/h
290 03-06-2011 09:51:02 20.1 C 5.74 g/m*3 20.1 C 0 km/h
291 03-06-2011 10:03:03 20.7 C 5.94 g/m*3 20.7 C 0 km/h
292 03-06-2011 10:15:02 20.8 C 5.79 g/m*3 20.8 C 0 km/h
293 03-06-2011 10:27:02 21 C 5.86 g/m*3 21 C 0 km/h
294 03-06-2011 10:39:02 21 C 5.68 g/m*3 21 C 0 km/h
295 03-06-2011 10:51:01 21.9 C 5.79 g/m*3 21.9 C 0 km/h
296 03-06-2011 11:03:02 22.1 C 5.47 g/m*3 22.1 C 0 km/h
297 03-06-2011 11:15:02 21.9 C 5.79 g/m*3 21.9 C 0 km/h
298 03-06-2011 11:27:03 22.1 C 6.05 g/m*3 22.1 C 0 km/h
299 03-06-2011 11:39:01 22.9 C 5.72 g/m*3 22.9 C 0 km/h
300 03-06-2011 11:51:01 23 C 5.55 g/m*3 23 C 0 km/h
Sensor: Nr:Datum:Temp:Abs-Feuchte:Windchill:Wind:
Aussen-T/F 301 03-06-2011 12:03:02 23 C 5.34 g/m*3 23 C 0 km/h
302 03-06-2011 12:15:01 23.2 C 5.2 g/m*3 23.2 C 0 km/h
303 03-06-2011 12:27:01 23.7 C 5.78 g/m*3 23.7 C 0 km/h
304 03-06-2011 12:39:02 24.8 C 5.69 g/m*3 24.8 C 0 km/h
305 03-06-2011 12:51:02 25.1 C 5.79 g/m*3 25.1 C 0 km/h
306 03-06-2011 13:03:02 25.4 C 5.41 g/m*3 25.4 C 0 km/h
307 03-06-2011 13:15:02 26.1 C 5.39 g/m*3 26.1 C 0 km/h
308 03-06-2011 13:27:02 25.5 C 5.45 g/m*3 25.5 C 0 km/h
309 03-06-2011 13:39:02 26.3 C 5.69 g/m*3 26.3 C 0 km/h
310 03-06-2011 13:51:02 28.9 C 5.71 g/m*3 28.9 C 0 km/h
311 03-06-2011 14:03:02 27.5 C 5.82 g/m*3 27.5 C 0 km/h
312 03-06-2011 14:15:02 29.4 C 5.87 g/m*3 29.4 C 0 km/h
313 03-06-2011 14:27:02 29.6 C 5.94 g/m*3 29.6 C 0 km/h
314 03-06-2011 14:39:02 25.5 C 5.68 g/m*3 25.5 C 0 km/h
315 03-06-2011 14:51:02 25.4 C 6.12 g/m*3 25.4 C 0 km/h
316 03-06-2011 15:03:02 28.5 C 6.15 g/m*3 28.5 C 0 km/h
317 03-06-2011 15:15:03 30.2 C 6.13 g/m*3 30.2 C 0 km/h
318 03-06-2011 15:27:03 31 C 6.4 g/m*3 31 C 0 km/h
319 03-06-2011 15:39:02 31.5 C 6.57 g/m*3 31.5 C 0 km/h
320 03-06-2011 15:51:02 31.4 C 6.54 g/m*3 31.4 C 0 km/h
321 03-06-2011 16:03:01 30 C 6.06 g/m*3 30 C 0 km/h
322 03-06-2011 16:15:02 31.1 C 6.43 g/m*3 31.1 C 0 km/h
323 03-06-2011 16:27:02 31.4 C 6.54 g/m*3 31.4 C 0 km/h
324 03-06-2011 16:39:02 31.9 C 6.72 g/m*3 31.9 C 0 km/h
325 03-06-2011 16:51:02 30.9 C 6.37 g/m*3 30.9 C 0 km/h
Sensor: Nr:Datum:Temp:Abs-Feuchte:Windchill:Wind:
Aussen-T/F 326 03-06-2011 17:03:03 31.6 C 6.61 g/m*3 31.6 C 0 km/h
327 03-06-2011 17:15:02 31.2 C 6.47 g/m*3 31.2 C 0 km/h
328 03-06-2011 17:27:02 31.5 C 6.57 g/m*3 31.5 C 0 km/h
329 03-06-2011 17:39:02 31.6 C 6.61 g/m*3 31.6 C 0 km/h
330 03-06-2011 17:51:02 31.4 C 6.54 g/m*3 31.4 C 0 km/h
331 03-06-2011 18:03:02 30.5 C 6.23 g/m*3 30.5 C 0 km/h
332 03-06-2011 18:15:01 30.8 C 6.33 g/m*3 30.8 C 0 km/h
333 03-06-2011 18:27:01 29.4 C 5.87 g/m*3 29.4 C 0 km/h
334 03-06-2011 18:39:02 30 C 6.06 g/m*3 30 C 0 km/h
335 03-06-2011 18:51:01 30.6 C 6.26 g/m*3 30.6 C 0 km/h
336 03-06-2011 19:03:02 30.4 C 6.2 g/m*3 30.4 C 0 km/h
337 03-06-2011 19:15:01 29.4 C 5.87 g/m*3 29.4 C 0 km/h
338 03-06-2011 19:27:01 29.8 C 6.3 g/m*3 29.8 C 0 km/h
339 03-06-2011 19:39:02 27.4 C 6.31 g/m*3 27.4 C 0 km/h
340 03-06-2011 19:51:01 26.3 C 6.44 g/m*3 26.3 C 0 km/h
341 03-06-2011 20:03:02 25.3 C 6.79 g/m*3 25.3 C 0 km/h
342 03-06-2011 20:15:02 25.2 C 6.75 g/m*3 25.2 C 0 km/h
343 03-06-2011 20:27:02 24.6 C 7.88 g/m*3 24.6 C 0 km/h
344 03-06-2011 20:39:02 24 C 7.4 g/m*3 24 C 0 km/h
345 03-06-2011 20:51:02 23.7 C 7.49 g/m*3 23.7 C 0 km/h
346 03-06-2011 21:03:02 22.9 C 7.77 g/m*3 22.9 C 0 km/h
347 03-06-2011 21:15:02 22.3 C 7.31 g/m*3 22.3 C 0 km/h
348 03-06-2011 21:27:02 21.4 C 7.87 g/m*3 21.4 C 0 km/h
349 03-06-2011 21:39:03 20.8 C 7.97 g/m*3 20.8 C 0 km/h
350 03-06-2011 21:51:02 20.3 C 7.91 g/m*3 20.3 C 0 km/h
Sensor: Nr:Datum:Temp:Abs-Feuchte:Windchill:Wind:
Aussen-T/F 351 03-06-2011 22:03:02 20.7 C 7.74 g/m*3 20.7 C 0 km/h
352 03-06-2011 22:15:02 19.9 C 8.08 g/m*3 19.9 C 0 km/h
353 03-06-2011 22:27:03 20 C 8.12 g/m*3 20 C 0 km/h
354 03-06-2011 22:39:02 19.8 C 8.03 g/m*3 19.8 C 0 km/h
355 03-06-2011 22:52:06 19.6 C 7.93 g/m*3 19.6 C 0 km/h
356 03-06-2011 23:04:06 19.5 C 8.22 g/m*3 19.5 C 0 km/h
357 03-06-2011 23:16:06 19 C 8.15 g/m*3 19 C 0 km/h
358 03-06-2011 23:28:06 18.4 C 8.49 g/m*3 18.4 C 0 km/h
359 03-06-2011 23:40:06 18 C 8.45 g/m*3 18 C 0 km/h
360 03-06-2011 23:52:06 17.9 C 8.55 g/m*3 17.9 C 0 km/h
361 04-06-2011 00:04:06 17.7 C 8.45 g/m*3 17.7 C 0 km/h
362 04-06-2011 00:16:06 17.3 C 8.4 g/m*3 17.3 C 0 km/h
363 04-06-2011 00:28:06 17.4 C 8.6 g/m*3 17.4 C 0 km/h
364 04-06-2011 00:40:06 17.4 C 8.45 g/m*3 17.4 C 0 km/h
365 04-06-2011 00:52:06 17.4 C 8.74 g/m*3 17.4 C 0 km/h
366 04-06-2011 01:04:06 17 C 8.39 g/m*3 17 C 0 km/h
367 04-06-2011 01:16:06 17.1 C 8.73 g/m*3 17.1 C 0 km/h
368 04-06-2011 01:28:06 17.1 C 8.59 g/m*3 17.1 C 0 km/h
369 04-06-2011 01:40:06 16.8 C 8.58 g/m*3 16.8 C 0 km/h
370 04-06-2011 01:52:07 16.8 C 8.58 g/m*3 16.8 C 0 km/h
371 04-06-2011 02:04:07 16.4 C 8.37 g/m*3 16.4 C 0 km/h
372 04-06-2011 02:16:07 16.3 C 8.46 g/m*3 16.3 C 0 km/h
373 04-06-2011 02:28:07 16 C 8.58 g/m*3 16 C 0 km/h
374 04-06-2011 02:40:07 16 C 8.45 g/m*3 16 C 0 km/h
375 04-06-2011 02:52:07 15.9 C 8.53 g/m*3 15.9 C 0 km/h
Sensor: Nr:Datum:Temp:Abs-Feuchte:Windchill:Wind:
Aussen-T/F 376 04-06-2011 03:04:07 15.8 C 8.48 g/m*3 15.8 C 0 km/h
377 04-06-2011 03:16:07 15.8 C 8.62 g/m*3 15.8 C 0 km/h
378 04-06-2011 03:28:07 15.6 C 8.51 g/m*3 15.6 C 0 km/h
379 04-06-2011 03:40:07 15.6 C 8.51 g/m*3 15.6 C 0 km/h
380 04-06-2011 03:52:07 15.4 C 8.41 g/m*3 15.4 C 0 km/h
381 04-06-2011 04:04:07 15.3 C 8.36 g/m*3 15.3 C 0 km/h
382 04-06-2011 04:16:07 15.2 C 8.31 g/m*3 15.2 C 0 km/h
383 04-06-2011 04:28:07 15 C 8.33 g/m*3 15 C 0 km/h
384 04-06-2011 04:40:07 14.9 C 8.54 g/m*3 14.9 C 0 km/h
385 04-06-2011 04:52:07 15 C 8.33 g/m*3 15 C 0 km/h
386 04-06-2011 05:04:07 14.9 C 8.41 g/m*3 14.9 C 0 km/h
387 04-06-2011 05:16:07 14.7 C 8.31 g/m*3 14.7 C 0 km/h
388 04-06-2011 05:28:07 14.8 C 8.49 g/m*3 14.8 C 0 km/h
389 04-06-2011 05:40:07 15 C 8.33 g/m*3 15 C 0 km/h
390 04-06-2011 05:52:08 14.8 C 8.36 g/m*3 14.8 C 0 km/h
391 04-06-2011 06:04:08 15 C 8.46 g/m*3 15 C 0 km/h
392 04-06-2011 06:16:08 15 C 8.59 g/m*3 15 C 0 km/h
393 04-06-2011 06:28:08 15.2 C 8.7 g/m*3 15.2 C 0 km/h
394 04-06-2011 06:40:08 15.7 C 8.83 g/m*3 15.7 C 0 km/h
395 04-06-2011 06:52:08 16 C 8.86 g/m*3 16 C 0 km/h
396 04-06-2011 07:04:08 16.7 C 9.1 g/m*3 16.7 C 0 km/h
397 04-06-2011 07:16:08 17.4 C 9.04 g/m*3 17.4 C 0 km/h
398 04-06-2011 07:28:08 18.1 C 9.12 g/m*3 18.1 C 0 km/h
399 04-06-2011 07:40:08 18.6 C 9.39 g/m*3 18.6 C 0 km/h
400 04-06-2011 07:52:08 18.6 C 9.39 g/m*3 18.6 C 0 km/h
Sensor: Nr:Datum:Temp:Abs-Feuchte:Windchill:Wind:
Aussen-T/F 401 04-06-2011 08:04:08 18.5 C 9.18 g/m*3 18.5 C 0 km/h
402 04-06-2011 08:16:08 18.4 C 9.28 g/m*3 18.4 C 0 km/h
403 04-06-2011 08:28:08 18.3 C 9.54 g/m*3 18.3 C 0 km/h
404 04-06-2011 08:40:08 19 C 9.45 g/m*3 19 C 0 km/h
405 04-06-2011 08:52:02 20 C 9.51 g/m*3 20 C 0 km/h
406 04-06-2011 09:04:02 20.3 C 9.67 g/m*3 20.3 C 0 km/h
407 04-06-2011 09:16:02 20.8 C 9.96 g/m*3 20.8 C 0 km/h
408 04-06-2011 09:28:02 21.9 C 9.26 g/m*3 21.9 C 0 km/h
409 04-06-2011 09:40:02 22.6 C 9.24 g/m*3 22.6 C 0 km/h
410 04-06-2011 09:52:02 22.6 C 8.84 g/m*3 22.6 C 0 km/h
411 04-06-2011 10:04:02 22.9 C 9.4 g/m*3 22.9 C 0 km/h
412 04-06-2011 10:16:01 23.5 C 8.88 g/m*3 23.5 C 0 km/h
413 04-06-2011 10:28:01 24 C 8.49 g/m*3 24 C 0 km/h
414 04-06-2011 10:40:02 24 C 9.14 g/m*3 24 C 0 km/h
415 04-06-2011 10:52:03 24.4 C 8.23 g/m*3 24.4 C 0 km/h
416 04-06-2011 11:04:02 25 C 8.75 g/m*3 25 C 0 km/h
417 04-06-2011 11:16:02 25.3 C 8.43 g/m*3 25.3 C 0 km/h
418 04-06-2011 11:28:02 25.8 C 8.67 g/m*3 25.8 C 0 km/h
419 04-06-2011 11:40:03 26.2 C 8.37 g/m*3 26.2 C 0 km/h
420 04-06-2011 11:52:02 27 C 7.98 g/m*3 27 C 0 km/h
421 04-06-2011 12:04:02 27.4 C 7.89 g/m*3 27.4 C 0 km/h
422 04-06-2011 12:16:02 27.3 C 7.85 g/m*3 27.3 C 0 km/h
423 04-06-2011 12:28:02 27.3 C 7.85 g/m*3 27.3 C 0 km/h
424 04-06-2011 12:40:02 27.4 C 8.16 g/m*3 27.4 C 0 km/h
425 04-06-2011 12:52:02 27.8 C 8.07 g/m*3 27.8 C 0 km/h
Sensor: Nr:Datum:Temp:Abs-Feuchte:Windchill:Wind:
Aussen-T/F 426 04-06-2011 13:04:02 28.1 C 7.66 g/m*3 28.1 C 0 km/h
427 04-06-2011 13:16:02 28.7 C 7.91 g/m*3 28.7 C 0 km/h
428 04-06-2011 13:28:02 31.3 C 7.15 g/m*3 31.3 C 0 km/h
429 04-06-2011 13:40:02 32 C 6.75 g/m*3 32 C 0 km/h
430 04-06-2011 13:52:02 32.9 C 7.08 g/m*3 32.9 C 0 km/h
431 04-06-2011 14:04:02 33.2 C 7.2 g/m*3 33.2 C 0 km/h
432 04-06-2011 14:16:02 31.8 C 6.68 g/m*3 31.8 C 0 km/h
433 04-06-2011 14:28:02 33.2 C 7.2 g/m*3 33.2 C 0 km/h
434 04-06-2011 14:40:02 33 C 7.12 g/m*3 33 C 0 km/h
435 04-06-2011 14:52:02 32.3 C 6.86 g/m*3 32.3 C 0 km/h
436 04-06-2011 15:04:02 31.2 C 7.12 g/m*3 31.2 C 0 km/h
437 04-06-2011 15:16:02 32.6 C 6.97 g/m*3 32.6 C 0 km/h
438 04-06-2011 15:28:03 30.6 C 7.2 g/m*3 30.6 C 0 km/h
439 04-06-2011 15:40:01 30.4 C 8.06 g/m*3 30.4 C 0 km/h
440 04-06-2011 15:52:02 30.1 C 7.93 g/m*3 30.1 C 0 km/h
441 04-06-2011 16:04:01 30.2 C 7.97 g/m*3 30.2 C 0 km/h
442 04-06-2011 16:16:02 30.4 C 7.75 g/m*3 30.4 C 0 km/h
443 04-06-2011 16:28:02 26.5 C 7.01 g/m*3 26.5 C 0 km/h
444 04-06-2011 16:40:01 21.6 C 12.14 g/m*3 21.6 C 0 km/h
445 04-06-2011 16:52:02 20.7 C 13.14 g/m*3 20.7 C 0 km/h
446 04-06-2011 17:04:02 20.8 C 13.4 g/m*3 20.8 C 0 km/h
447 04-06-2011 17:16:02 23.6 C 14.25 g/m*3 23.6 C 0 km/h
448 04-06-2011 17:28:02 24.8 C 13.88 g/m*3 24.8 C 0 km/h
449 04-06-2011 17:40:02 24.6 C 13.73 g/m*3 24.6 C 0 km/h
450 04-06-2011 17:52:02 23.1 C 13.23 g/m*3 23.1 C 0 km/h
Sensor: Nr:Datum:Temp:Abs-Feuchte:Windchill:Wind:
Aussen-T/F 451 04-06-2011 18:04:02 22.6 C 13.86 g/m*3 22.6 C 0 km/h
452 04-06-2011 18:16:02 22.1 C 13.66 g/m*3 22.1 C 0 km/h
453 04-06-2011 18:28:02 21.4 C 13.5 g/m*3 21.4 C 0 km/h
454 04-06-2011 18:40:01 20.4 C 13.09 g/m*3 20.4 C 0 km/h
455 04-06-2011 18:52:02 20.1 C 13.04 g/m*3 20.1 C 0 km/h
456 04-06-2011 19:04:01 20.3 C 13.37 g/m*3 20.3 C 0 km/h
457 04-06-2011 19:16:01 20.9 C 13.48 g/m*3 20.9 C 0 km/h
458 04-06-2011 19:28:01 20.9 C 13.11 g/m*3 20.9 C 0 km/h
459 04-06-2011 19:40:02 20.6 C 12.89 g/m*3 20.6 C 0 km/h
460 04-06-2011 19:52:02 20.4 C 12.56 g/m*3 20.4 C 0 km/h
461 04-06-2011 20:04:02 20.5 C 12.46 g/m*3 20.5 C 0 km/h
462 04-06-2011 20:16:02 20.5 C 12.28 g/m*3 20.5 C 0 km/h
463 04-06-2011 20:28:02 20.4 C 12.38 g/m*3 20.4 C 0 km/h
464 04-06-2011 20:40:02 20.4 C 12.38 g/m*3 20.4 C 0 km/h
465 04-06-2011 20:52:02 20.3 C 12.49 g/m*3 20.3 C 0 km/h
466 04-06-2011 21:04:02 20 C 12.27 g/m*3 20 C 0 km/h
467 04-06-2011 21:16:02 19.5 C 12.75 g/m*3 19.5 C 0 km/h
468 04-06-2011 21:28:02 19.4 C 12.68 g/m*3 19.4 C 0 km/h
469 04-06-2011 21:40:02 19.6 C 12.32 g/m*3 19.6 C 0 km/h
470 04-06-2011 21:52:01 19.4 C 12.35 g/m*3 19.4 C 0 km/h
471 04-06-2011 22:04:01 19.4 C 12.01 g/m*3 19.4 C 0 km/h
472 04-06-2011 22:17:02 18.8 C 12.88 g/m*3 18.8 C 0 km/h
473 04-06-2011 22:29:02 18.4 C 12.9 g/m*3 18.4 C 0 km/h
474 04-06-2011 22:41:02 18.1 C 12.82 g/m*3 18.1 C 0 km/h
475 04-06-2011 22:53:03 18.1 C 12.98 g/m*3 18.1 C 0 km/h
Sensor: Nr:Datum:Temp:Abs-Feuchte:Windchill:Wind:
Aussen-T/F 476 04-06-2011 23:05:03 18 C 13.06 g/m*3 18 C 0 km/h
477 04-06-2011 23:17:03 18.1 C 13.13 g/m*3 18.1 C 0 km/h
478 04-06-2011 23:29:03 18 C 13.21 g/m*3 18 C 0 km/h
479 04-06-2011 23:41:03 17.9 C 13.28 g/m*3 17.9 C 0 km/h
480 04-06-2011 23:53:03 17.9 C 13.44 g/m*3 17.9 C 0 km/h
481 05-06-2011 00:05:03 17.9 C 13.44 g/m*3 17.9 C 0 km/h
482 05-06-2011 00:17:03 17.9 C 13.44 g/m*3 17.9 C 0 km/h
483 05-06-2011 00:29:03 17.7 C 13.28 g/m*3 17.7 C 0 km/h
484 05-06-2011 00:41:03 17.8 C 13.36 g/m*3 17.8 C 0 km/h
485 05-06-2011 00:53:03 17.7 C 13.28 g/m*3 17.7 C 0 km/h
486 05-06-2011 01:05:03 17.6 C 13.2 g/m*3 17.6 C 0 km/h
487 05-06-2011 01:17:03 17.4 C 13.04 g/m*3 17.4 C 0 km/h
488 05-06-2011 01:29:03 17.5 C 13.12 g/m*3 17.5 C 0 km/h
489 05-06-2011 01:41:03 17.2 C 12.89 g/m*3 17.2 C 0 km/h
490 05-06-2011 01:53:03 17 C 12.73 g/m*3 17 C 0 km/h
491 05-06-2011 02:05:03 16.9 C 12.8 g/m*3 16.9 C 0 km/h
492 05-06-2011 02:17:03 16.7 C 12.65 g/m*3 16.7 C 0 km/h
493 05-06-2011 02:29:03 16.5 C 12.5 g/m*3 16.5 C 0 km/h
494 05-06-2011 02:41:03 16.3 C 12.35 g/m*3 16.3 C 0 km/h
495 05-06-2011 02:53:04 16.4 C 12.42 g/m*3 16.4 C 0 km/h
496 05-06-2011 03:05:04 16.1 C 12.2 g/m*3 16.1 C 0 km/h
497 05-06-2011 03:17:04 16 C 12.13 g/m*3 16 C 0 km/h
498 05-06-2011 03:29:04 15.7 C 11.91 g/m*3 15.7 C 0 km/h
499 05-06-2011 03:41:04 15.7 C 11.91 g/m*3 15.7 C 0 km/h
500 05-06-2011 03:53:04 15.4 C 11.69 g/m*3 15.4 C 0 km/h
Sensor: Nr:Datum:Temp:Abs-Feuchte:Windchill:Wind:
Aussen-T/F 501 05-06-2011 04:05:04 15.5 C 11.76 g/m*3 15.5 C 0 km/h
502 05-06-2011 04:17:04 15.5 C 11.76 g/m*3 15.5 C 0 km/h
503 05-06-2011 04:29:04 15.7 C 11.91 g/m*3 15.7 C 0 km/h
504 05-06-2011 04:41:04 15.1 C 11.48 g/m*3 15.1 C 0 km/h
505 05-06-2011 04:53:04 15.1 C 11.48 g/m*3 15.1 C 0 km/h
506 05-06-2011 05:05:04 15.2 C 11.55 g/m*3 15.2 C 0 km/h
507 05-06-2011 05:17:04 15.3 C 11.75 g/m*3 15.3 C 0 km/h
508 05-06-2011 05:29:04 15 C 11.54 g/m*3 15 C 0 km/h
509 05-06-2011 05:41:04 15.2 C 11.68 g/m*3 15.2 C 0 km/h
510 05-06-2011 05:53:04 15.6 C 11.97 g/m*3 15.6 C 0 km/h
511 05-06-2011 06:05:04 15.8 C 12.11 g/m*3 15.8 C 0 km/h
512 05-06-2011 06:17:04 16.1 C 12.2 g/m*3 16.1 C 0 km/h
513 05-06-2011 06:29:04 16.2 C 12.41 g/m*3 16.2 C 0 km/h
514 05-06-2011 06:41:04 16.4 C 12.56 g/m*3 16.4 C 0 km/h
515 05-06-2011 06:53:04 16.3 C 12.49 g/m*3 16.3 C 0 km/h
516 05-06-2011 07:05:05 16.3 C 12.49 g/m*3 16.3 C 0 km/h
517 05-06-2011 07:17:05 16.4 C 12.56 g/m*3 16.4 C 0 km/h
518 05-06-2011 07:29:05 16.5 C 12.5 g/m*3 16.5 C 0 km/h
519 05-06-2011 07:41:05 16.7 C 12.79 g/m*3 16.7 C 0 km/h
520 05-06-2011 07:53:05 17.4 C 13.19 g/m*3 17.4 C 0 km/h
521 05-06-2011 08:05:02 17.9 C 13.59 g/m*3 17.9 C 0 km/h
522 05-06-2011 08:17:02 18 C 13.52 g/m*3 18 C 0 km/h
523 05-06-2011 08:29:02 18.4 C 13.68 g/m*3 18.4 C 0 km/h
524 05-06-2011 08:41:02 18.5 C 13.61 g/m*3 18.5 C 0 km/h
525 05-06-2011 08:53:02 18.7 C 13.45 g/m*3 18.7 C 0 km/h
Sensor: Nr:Datum:Temp:Abs-Feuchte:Windchill:Wind:
Aussen-T/F 526 05-06-2011 09:05:01 18.6 C 12.73 g/m*3 18.6 C 0 km/h
527 05-06-2011 09:17:02 19.5 C 12.59 g/m*3 19.5 C 0 km/h
528 05-06-2011 09:29:02 19.9 C 12.54 g/m*3 19.9 C 0 km/h
529 05-06-2011 09:41:02 19.5 C 12.25 g/m*3 19.5 C 0 km/h
530 05-06-2011 09:53:01 19.5 C 12.42 g/m*3 19.5 C 0 km/h
531 05-06-2011 10:05:02 19.9 C 13.4 g/m*3 19.9 C 0 km/h
532 05-06-2011 10:17:02 20.2 C 13.46 g/m*3 20.2 C 0 km/h
533 05-06-2011 10:29:02 20.6 C 13.42 g/m*3 20.6 C 0 km/h
534 05-06-2011 10:41:01 21.8 C 14.01 g/m*3 21.8 C 0 km/h
535 05-06-2011 10:53:02 21.7 C 12.97 g/m*3 21.7 C 0 km/h
536 05-06-2011 11:05:01 21.7 C 12.97 g/m*3 21.7 C 0 km/h
537 05-06-2011 11:17:01 21.7 C 12.59 g/m*3 21.7 C 0 km/h
538 05-06-2011 11:29:02 22.2 C 12.96 g/m*3 22.2 C 0 km/h
539 05-06-2011 11:41:01 22.4 C 13.31 g/m*3 22.4 C 0 km/h
540 05-06-2011 11:53:02 23.2 C 13.1 g/m*3 23.2 C 0 km/h
541 05-06-2011 12:05:02 23.7 C 12.62 g/m*3 23.7 C 0 km/h
542 05-06-2011 12:17:02 24.1 C 12.25 g/m*3 24.1 C 0 km/h
543 05-06-2011 12:29:02 23.7 C 13.9 g/m*3 23.7 C 0 km/h
544 05-06-2011 12:41:02 24.4 C 14.02 g/m*3 24.4 C 0 km/h
545 05-06-2011 12:53:01 24.8 C 13.2 g/m*3 24.8 C 0 km/h
546 05-06-2011 13:05:02 25.3 C 14.05 g/m*3 25.3 C 0 km/h
547 05-06-2011 13:17:01 24.9 C 13.73 g/m*3 24.9 C 0 km/h
548 05-06-2011 13:29:01 24.8 C 13.88 g/m*3 24.8 C 0 km/h
549 05-06-2011 13:41:02 25 C 13.81 g/m*3 25 C 0 km/h
550 05-06-2011 13:53:02 25.6 C 15 g/m*3 25.6 C 0 km/h
Sensor: Nr:Datum:Temp:Abs-Feuchte:Windchill:Wind:
Aussen-T/F 551 05-06-2011 14:05:02 25.3 C 14.05 g/m*3 25.3 C 0 km/h
552 05-06-2011 14:17:01 24.7 C 15.16 g/m*3 24.7 C 0 km/h
553 05-06-2011 14:29:01 24.4 C 15.58 g/m*3 24.4 C 0 km/h
554 05-06-2011 14:41:02 27.5 C 14.55 g/m*3 27.5 C 0 km/h
555 05-06-2011 14:53:02 28.1 C 11.76 g/m*3 28.1 C 0 km/h
556 05-06-2011 15:05:02 27.7 C 13.91 g/m*3 27.7 C 0 km/h
557 05-06-2011 15:17:01 25.3 C 12.88 g/m*3 25.3 C 0 km/h
558 05-06-2011 15:29:01 23.7 C 14.33 g/m*3 23.7 C 0 km/h
559 05-06-2011 15:41:16 21.9 C 14.67 g/m*3 21.9 C 0 km/h
560 05-06-2011 15:53:16 21.1 C 14.56 g/m*3 21.1 C 0 km/h
561 05-06-2011 16:05:16 19.5 C 13.43 g/m*3 19.5 C 0 km/h
562 05-06-2011 16:17:16 17.4 C 12 g/m*3 17.4 C 0 km/h
563 05-06-2011 16:29:16 17.3 C 12.23 g/m*3 17.3 C 0 km/h
564 05-06-2011 16:41:16 17.6 C 12.6 g/m*3 17.6 C 0 km/h
565 05-06-2011 16:53:16 17.3 C 12.37 g/m*3 17.3 C 0 km/h
566 05-06-2011 17:05:02 17.4 C 12.6 g/m*3 17.4 C 0 km/h
567 05-06-2011 17:17:02 17.5 C 12.82 g/m*3 17.5 C 0 km/h
568 05-06-2011 17:29:02 17.7 C 12.98 g/m*3 17.7 C 0 km/h
569 05-06-2011 17:41:02 17.2 C 12.59 g/m*3 17.2 C 0 km/h
570 05-06-2011 17:53:02 17.2 C 12.59 g/m*3 17.2 C 0 km/h
571 05-06-2011 18:05:01 17.2 C 12.59 g/m*3 17.2 C 0 km/h
572 05-06-2011 18:17:02 16.9 C 12.51 g/m*3 16.9 C 0 km/h
573 05-06-2011 18:29:02 16.9 C 12.51 g/m*3 16.9 C 0 km/h
574 05-06-2011 18:41:02 16.8 C 12.44 g/m*3 16.8 C 0 km/h
575 05-06-2011 18:53:02 16.8 C 12.58 g/m*3 16.8 C 0 km/h
Sensor: Nr:Datum:Temp:Abs-Feuchte:Windchill:Wind:
Aussen-T/F 576 05-06-2011 19:05:03 17 C 12.59 g/m*3 17 C 0 km/h
577 05-06-2011 19:17:02 17.2 C 12.74 g/m*3 17.2 C 0 km/h
578 05-06-2011 19:29:02 17.4 C 13.04 g/m*3 17.4 C 0 km/h
579 05-06-2011 19:41:02 17.7 C 13.28 g/m*3 17.7 C 0 km/h
580 05-06-2011 19:53:01 17.8 C 13.36 g/m*3 17.8 C 0 km/h
581 05-06-2011 20:05:02 17.8 C 13.2 g/m*3 17.8 C 0 km/h
582 05-06-2011 20:17:01 17.8 C 13.2 g/m*3 17.8 C 0 km/h
583 05-06-2011 20:29:01 17.6 C 13.05 g/m*3 17.6 C 0 km/h
584 05-06-2011 20:41:02 17.3 C 12.82 g/m*3 17.3 C 0 km/h
585 05-06-2011 20:53:01 17.3 C 12.82 g/m*3 17.3 C 0 km/h
586 05-06-2011 21:05:02 17.2 C 12.74 g/m*3 17.2 C 0 km/h
587 05-06-2011 21:17:01 17 C 12.59 g/m*3 17 C 0 km/h
588 05-06-2011 21:29:01 16.8 C 12.58 g/m*3 16.8 C 0 km/h
589 05-06-2011 21:41:02 16.7 C 12.51 g/m*3 16.7 C 0 km/h
590 05-06-2011 21:53:01 16.7 C 12.65 g/m*3 16.7 C 0 km/h
591 05-06-2011 22:05:01 16.7 C 12.65 g/m*3 16.7 C 0 km/h
592 05-06-2011 22:17:02 16.8 C 12.72 g/m*3 16.8 C 0 km/h
593 05-06-2011 22:29:02 16.8 C 12.72 g/m*3 16.8 C 0 km/h
594 05-06-2011 22:41:01 16.4 C 12.42 g/m*3 16.4 C 0 km/h
595 05-06-2011 22:53:03 16.2 C 12.27 g/m*3 16.2 C 0 km/h
596 05-06-2011 23:06:05 16.1 C 12.2 g/m*3 16.1 C 0 km/h
597 05-06-2011 23:18:05 16 C 12.13 g/m*3 16 C 0 km/h
598 05-06-2011 23:30:05 15.9 C 12.05 g/m*3 15.9 C 0 km/h
599 05-06-2011 23:42:05 15.5 C 11.76 g/m*3 15.5 C 0 km/h
600 05-06-2011 23:54:05 15 C 11.41 g/m*3 15 C 0 km/h
Sensor: Nr:Datum:Temp:Abs-Feuchte:Windchill:Wind:
Aussen-T/F 601 06-06-2011 00:06:05 15.3 C 11.62 g/m*3 15.3 C 0 km/h
602 06-06-2011 00:18:05 15.3 C 11.75 g/m*3 15.3 C 0 km/h
603 06-06-2011 00:30:06 14.9 C 11.47 g/m*3 14.9 C 0 km/h
604 06-06-2011 00:42:06 15 C 11.41 g/m*3 15 C 0 km/h
605 06-06-2011 00:54:06 15 C 11.54 g/m*3 15 C 0 km/h
606 06-06-2011 01:06:06 15.1 C 11.61 g/m*3 15.1 C 0 km/h
607 06-06-2011 01:18:06 15.1 C 11.61 g/m*3 15.1 C 0 km/h
608 06-06-2011 01:30:06 14.9 C 11.6 g/m*3 14.9 C 0 km/h
609 06-06-2011 01:42:06 15 C 11.54 g/m*3 15 C 0 km/h
610 06-06-2011 01:54:06 15 C 11.54 g/m*3 15 C 0 km/h
611 06-06-2011 02:06:06 15.1 C 11.61 g/m*3 15.1 C 0 km/h
612 06-06-2011 02:18:06 15.1 C 11.61 g/m*3 15.1 C 0 km/h
613 06-06-2011 02:30:06 15.1 C 11.61 g/m*3 15.1 C 0 km/h
614 06-06-2011 02:42:06 15 C 11.54 g/m*3 15 C 0 km/h
615 06-06-2011 02:54:06 15 C 11.54 g/m*3 15 C 0 km/h
616 06-06-2011 03:06:06 15.1 C 11.61 g/m*3 15.1 C 0 km/h
617 06-06-2011 03:18:06 14.9 C 11.6 g/m*3 14.9 C 0 km/h
618 06-06-2011 03:30:06 15 C 11.54 g/m*3 15 C 0 km/h
619 06-06-2011 03:42:06 14.5 C 11.32 g/m*3 14.5 C 0 km/h
620 06-06-2011 03:54:06 14.4 C 11.25 g/m*3 14.4 C 0 km/h
621 06-06-2011 04:06:06 14.4 C 11.25 g/m*3 14.4 C 0 km/h
622 06-06-2011 04:18:06 13.8 C 10.84 g/m*3 13.8 C 0 km/h
623 06-06-2011 04:30:06 14 C 10.98 g/m*3 14 C 0 km/h
624 06-06-2011 04:42:07 14 C 10.98 g/m*3 14 C 0 km/h
625 06-06-2011 04:54:07 13.7 C 10.78 g/m*3 13.7 C 0 km/h
Sensor: Nr:Datum:Temp:Abs-Feuchte:Windchill:Wind:
Aussen-T/F 626 06-06-2011 05:06:07 14 C 10.98 g/m*3 14 C 0 km/h
627 06-06-2011 05:18:07 13.6 C 10.71 g/m*3 13.6 C 0 km/h
628 06-06-2011 05:30:07 13.6 C 10.71 g/m*3 13.6 C 0 km/h
629 06-06-2011 05:42:07 13.5 C 10.64 g/m*3 13.5 C 0 km/h
630 06-06-2011 05:54:07 13.7 C 10.78 g/m*3 13.7 C 0 km/h
631 06-06-2011 06:06:07 13.7 C 10.78 g/m*3 13.7 C 0 km/h
632 06-06-2011 06:18:07 14 C 10.98 g/m*3 14 C 0 km/h
633 06-06-2011 06:30:07 14.2 C 11.11 g/m*3 14.2 C 0 km/h
634 06-06-2011 06:42:07 14.4 C 11.25 g/m*3 14.4 C 0 km/h
635 06-06-2011 06:54:07 14.8 C 11.53 g/m*3 14.8 C 0 km/h
636 06-06-2011 07:06:07 14.9 C 11.6 g/m*3 14.9 C 0 km/h
637 06-06-2011 07:18:04 15.2 C 11.68 g/m*3 15.2 C 0 km/h
638 06-06-2011 07:30:04 15.4 C 11.82 g/m*3 15.4 C 0 km/h
639 06-06-2011 07:42:04 15.5 C 11.9 g/m*3 15.5 C 0 km/h
640 06-06-2011 07:54:03 15.7 C 12.04 g/m*3 15.7 C 0 km/h
641 06-06-2011 08:06:02 16.1 C 12.34 g/m*3 16.1 C 0 km/h
642 06-06-2011 08:18:02 16.8 C 12.87 g/m*3 16.8 C 0 km/h
643 06-06-2011 08:30:02 17 C 12.88 g/m*3 17 C 0 km/h
644 06-06-2011 08:42:02 18.3 C 13.76 g/m*3 18.3 C 0 km/h
645 06-06-2011 08:54:02 18.1 C 13.44 g/m*3 18.1 C 0 km/h
646 06-06-2011 09:06:01 18.3 C 13.29 g/m*3 18.3 C 0 km/h
647 06-06-2011 09:18:02 18.1 C 12.82 g/m*3 18.1 C 0 km/h
648 06-06-2011 09:30:02 18.1 C 12.98 g/m*3 18.1 C 0 km/h
649 06-06-2011 09:42:02 18.3 C 12.98 g/m*3 18.3 C 0 km/h
650 06-06-2011 09:54:02 18.8 C 13.37 g/m*3 18.8 C 0 km/h
Sensor: Nr:Datum:Temp:Abs-Feuchte:Windchill:Wind:
Aussen-T/F 651 06-06-2011 10:06:02 19 C 13.53 g/m*3 19 C 0 km/h
652 06-06-2011 10:18:02 19.6 C 13.34 g/m*3 19.6 C 0 km/h
653 06-06-2011 10:30:02 20.7 C 13.14 g/m*3 20.7 C 0 km/h
654 06-06-2011 10:42:02 21.3 C 11.93 g/m*3 21.3 C 0 km/h
655 06-06-2011 10:54:02 21.4 C 12 g/m*3 21.4 C 0 km/h
656 06-06-2011 11:06:02 21.9 C 11.77 g/m*3 21.9 C 0 km/h
657 06-06-2011 11:18:02 22.9 C 10.83 g/m*3 22.9 C 0 km/h
658 06-06-2011 11:30:02 21.5 C 10.75 g/m*3 21.5 C 0 km/h
659 06-06-2011 11:42:02 22.3 C 10.86 g/m*3 22.3 C 0 km/h
660 06-06-2011 11:54:02 22.9 C 11.24 g/m*3 22.9 C 0 km/h
661 06-06-2011 12:06:02 23 C 11.1 g/m*3 23 C 0 km/h
662 06-06-2011 12:18:02 22.9 C 10.83 g/m*3 22.9 C 0 km/h
663 06-06-2011 12:30:02 23.5 C 10.79 g/m*3 23.5 C 0 km/h
664 06-06-2011 12:42:02 23.9 C 11.03 g/m*3 23.9 C 0 km/h
665 06-06-2011 12:54:02 24.2 C 10.78 g/m*3 24.2 C 0 km/h
666 06-06-2011 13:06:01 24.6 C 11.25 g/m*3 24.6 C 0 km/h
667 06-06-2011 13:18:02 24.6 C 10.35 g/m*3 24.6 C 0 km/h
668 06-06-2011 13:30:02 29.1 C 10.11 g/m*3 29.1 C 0 km/h
669 06-06-2011 13:42:01 27.8 C 9.95 g/m*3 27.8 C 0 km/h
670 06-06-2011 13:54:02 27 C 9.01 g/m*3 27 C 0 km/h
671 06-06-2011 14:06:01 28.3 C 9.68 g/m*3 28.3 C 0 km/h
672 06-06-2011 14:18:01 27.3 C 9.42 g/m*3 27.3 C 0 km/h
673 06-06-2011 14:30:01 26.7 C 9.37 g/m*3 26.7 C 0 km/h
674 06-06-2011 14:42:02 26.4 C 8.96 g/m*3 26.4 C 0 km/h
675 06-06-2011 14:54:02 26.5 C 10.01 g/m*3 26.5 C 0 km/h
Sensor: Nr:Datum:Temp:Abs-Feuchte:Windchill:Wind:
Aussen-T/F 676 06-06-2011 15:06:02 26.2 C 8.86 g/m*3 26.2 C 0 km/h
677 06-06-2011 15:18:01 25.8 C 9.87 g/m*3 25.8 C 0 km/h
678 06-06-2011 15:30:01 25.5 C 11.6 g/m*3 25.5 C 0 km/h
679 06-06-2011 15:42:02 27.2 C 10.15 g/m*3 27.2 C 0 km/h
680 06-06-2011 15:54:02 25.1 C 9.26 g/m*3 25.1 C 0 km/h
681 06-06-2011 16:06:02 24.8 C 10.24 g/m*3 24.8 C 0 km/h
682 06-06-2011 16:18:01 25.1 C 10.19 g/m*3 25.1 C 0 km/h
683 06-06-2011 16:30:01 26.1 C 10.28 g/m*3 26.1 C 0 km/h
684 06-06-2011 16:42:02 25.8 C 10.11 g/m*3 25.8 C 0 km/h
685 06-06-2011 16:54:02 23 C 8.63 g/m*3 23 C 0 km/h
686 06-06-2011 17:06:02 21.1 C 8.84 g/m*3 21.1 C 0 km/h
687 06-06-2011 17:18:01 18 C 9.83 g/m*3 18 C 0 km/h
688 06-06-2011 17:30:01 16.9 C 10.79 g/m*3 16.9 C 0 km/h
689 06-06-2011 17:42:02 16.4 C 10.89 g/m*3 16.4 C 0 km/h
690 06-06-2011 17:54:01 16.3 C 11.38 g/m*3 16.3 C 0 km/h
691 06-06-2011 18:06:02 16.4 C 11.72 g/m*3 16.4 C 0 km/h
692 06-06-2011 18:18:02 17 C 12.01 g/m*3 17 C 0 km/h
693 06-06-2011 18:30:02 16.8 C 12.01 g/m*3 16.8 C 0 km/h
694 06-06-2011 18:42:01 17.2 C 12.3 g/m*3 17.2 C 0 km/h
695 06-06-2011 18:54:02 17.2 C 12.3 g/m*3 17.2 C 0 km/h
696 06-06-2011 19:06:01 17.2 C 12.3 g/m*3 17.2 C 0 km/h
697 06-06-2011 19:18:02 17.5 C 12.67 g/m*3 17.5 C 0 km/h
698 06-06-2011 19:30:03 17.8 C 12.9 g/m*3 17.8 C 0 km/h
699 06-06-2011 19:42:01 18.1 C 12.82 g/m*3 18.1 C 0 km/h
700 06-06-2011 19:54:02 18.1 C 12.82 g/m*3 18.1 C 0 km/h
Sensor: Nr:Datum:Temp:Abs-Feuchte:Windchill:Wind:
Aussen-T/F 701 06-06-2011 20:06:02 18.1 C 12.67 g/m*3 18.1 C 0 km/h
702 06-06-2011 20:18:02 18.1 C 12.67 g/m*3 18.1 C 0 km/h
703 06-06-2011 20:30:02 18.1 C 12.67 g/m*3 18.1 C 0 km/h
704 06-06-2011 20:42:49 17.5 C 12.52 g/m*3 17.5 C 0 km/h
705 06-06-2011 20:54:49 17.2 C 12.45 g/m*3 17.2 C 0 km/h
706 06-06-2011 21:06:49 16.8 C 12.15 g/m*3 16.8 C 0 km/h
707 06-06-2011 21:18:03 16.5 C 12.08 g/m*3 16.5 C 0 km/h
708 06-06-2011 21:30:03 16.3 C 11.93 g/m*3 16.3 C 0 km/h
709 06-06-2011 21:42:02 16.2 C 12 g/m*3 16.2 C 0 km/h
710 06-06-2011 21:55:02 15.9 C 11.78 g/m*3 15.9 C 0 km/h
711 06-06-2011 22:07:02 15.9 C 11.92 g/m*3 15.9 C 0 km/h
712 06-06-2011 22:19:02 15.6 C 11.7 g/m*3 15.6 C 0 km/h
713 06-06-2011 22:31:02 15.3 C 11.49 g/m*3 15.3 C 0 km/h
714 06-06-2011 22:43:02 15.8 C 11.98 g/m*3 15.8 C 0 km/h
715 06-06-2011 22:55:02 15.6 C 11.84 g/m*3 15.6 C 0 km/h
716 06-06-2011 23:07:03 15.5 C 11.76 g/m*3 15.5 C 0 km/h
717 06-06-2011 23:19:03 15.7 C 11.91 g/m*3 15.7 C 0 km/h
718 06-06-2011 23:31:03 15.6 C 11.84 g/m*3 15.6 C 0 km/h
719 06-06-2011 23:43:03 15.6 C 11.84 g/m*3 15.6 C 0 km/h
720 06-06-2011 23:55:03 15.4 C 11.69 g/m*3 15.4 C 0 km/h
721 07-06-2011 00:07:03 15 C 11.41 g/m*3 15 C 0 km/h
722 07-06-2011 00:19:03 15.2 C 11.55 g/m*3 15.2 C 0 km/h
723 07-06-2011 00:31:03 15.2 C 11.55 g/m*3 15.2 C 0 km/h
724 07-06-2011 00:43:03 15.1 C 11.48 g/m*3 15.1 C 0 km/h
725 07-06-2011 00:55:03 15.2 C 11.55 g/m*3 15.2 C 0 km/h
Sensor: Nr:Datum:Temp:Abs-Feuchte:Windchill:Wind:
Aussen-T/F 726 07-06-2011 01:07:03 15.3 C 11.75 g/m*3 15.3 C 0 km/h
727 07-06-2011 01:19:03 15.3 C 11.75 g/m*3 15.3 C 0 km/h
728 07-06-2011 01:31:03 15.3 C 11.75 g/m*3 15.3 C 0 km/h
729 07-06-2011 01:43:03 15.5 C 11.9 g/m*3 15.5 C 0 km/h
730 07-06-2011 01:55:03 15.5 C 11.9 g/m*3 15.5 C 0 km/h
731 07-06-2011 02:07:03 15.6 C 11.97 g/m*3 15.6 C 0 km/h
732 07-06-2011 02:19:03 15.7 C 12.04 g/m*3 15.7 C 0 km/h
733 07-06-2011 02:31:03 15.7 C 12.04 g/m*3 15.7 C 0 km/h
734 07-06-2011 02:43:03 15.7 C 12.04 g/m*3 15.7 C 0 km/h
735 07-06-2011 02:55:03 15.5 C 11.9 g/m*3 15.5 C 0 km/h
736 07-06-2011 03:07:04 15.5 C 11.9 g/m*3 15.5 C 0 km/h
737 07-06-2011 03:19:04 15.4 C 11.82 g/m*3 15.4 C 0 km/h
738 07-06-2011 03:31:04 15 C 11.54 g/m*3 15 C 0 km/h
739 07-06-2011 03:43:04 14.9 C 11.6 g/m*3 14.9 C 0 km/h
740 07-06-2011 03:55:04 14.8 C 11.53 g/m*3 14.8 C 0 km/h
741 07-06-2011 04:07:04 15 C 11.54 g/m*3 15 C 0 km/h
742 07-06-2011 04:19:04 15.1 C 11.61 g/m*3 15.1 C 0 km/h
743 07-06-2011 04:31:04 15.2 C 11.68 g/m*3 15.2 C 0 km/h
744 07-06-2011 04:43:04 15.2 C 11.68 g/m*3 15.2 C 0 km/h
745 07-06-2011 04:55:04 15.1 C 11.61 g/m*3 15.1 C 0 km/h
746 07-06-2011 05:07:04 15 C 11.54 g/m*3 15 C 0 km/h
747 07-06-2011 05:19:04 15 C 11.54 g/m*3 15 C 0 km/h
748 07-06-2011 05:31:04 15 C 11.54 g/m*3 15 C 0 km/h
749 07-06-2011 05:43:04 15 C 11.54 g/m*3 15 C 0 km/h
750 07-06-2011 05:55:04 15 C 11.54 g/m*3 15 C 0 km/h
Sensor: Nr:Datum:Temp:Abs-Feuchte:Windchill:Wind:
Aussen-T/F 751 07-06-2011 06:07:04 14.7 C 11.33 g/m*3 14.7 C 0 km/h
752 07-06-2011 06:19:04 14.8 C 11.4 g/m*3 14.8 C 0 km/h
753 07-06-2011 06:31:04 14.8 C 11.4 g/m*3 14.8 C 0 km/h
754 07-06-2011 06:43:04 14.9 C 11.47 g/m*3 14.9 C 0 km/h
755 07-06-2011 06:55:04 15.2 C 11.42 g/m*3 15.2 C 0 km/h
756 07-06-2011 07:07:02 15.4 C 11.04 g/m*3 15.4 C 0 km/h
757 07-06-2011 07:19:02 15.7 C 10.84 g/m*3 15.7 C 0 km/h
758 07-06-2011 07:31:02 16 C 10.9 g/m*3 16 C 0 km/h
759 07-06-2011 07:43:02 16.2 C 10.76 g/m*3 16.2 C 0 km/h
760 07-06-2011 07:55:02 16.6 C 10.03 g/m*3 16.6 C 0 km/h
761 07-06-2011 08:07:02 16.9 C 9.92 g/m*3 16.9 C 0 km/h
762 07-06-2011 08:19:01 17.2 C 9.67 g/m*3 17.2 C 0 km/h
763 07-06-2011 08:31:02 17.8 C 9.87 g/m*3 17.8 C 0 km/h
764 07-06-2011 08:43:02 17.9 C 9.47 g/m*3 17.9 C 0 km/h
765 07-06-2011 08:55:02 18.2 C 8.86 g/m*3 18.2 C 0 km/h
766 07-06-2011 09:07:02 18.4 C 8.81 g/m*3 18.4 C 0 km/h
767 07-06-2011 09:19:01 18.5 C 8.54 g/m*3 18.5 C 0 km/h
768 07-06-2011 09:31:02 18.1 C 8.5 g/m*3 18.1 C 0 km/h
769 07-06-2011 09:43:02 18.4 C 8.81 g/m*3 18.4 C 0 km/h
770 07-06-2011 09:55:02 18.9 C 8.59 g/m*3 18.9 C 0 km/h
771 07-06-2011 10:07:02 18.8 C 8.21 g/m*3 18.8 C 0 km/h
772 07-06-2011 10:19:02 19.2 C 8.24 g/m*3 19.2 C 0 km/h
773 07-06-2011 10:31:02 19.1 C 8.03 g/m*3 19.1 C 0 km/h
774 07-06-2011 10:43:02 19.5 C 9.06 g/m*3 19.5 C 0 km/h
775 07-06-2011 10:55:02 19.1 C 8.85 g/m*3 19.1 C 0 km/h
Sensor: Nr:Datum:Temp:Abs-Feuchte:Windchill:Wind:
Aussen-T/F 776 07-06-2011 11:07:02 19.1 C 8.2 g/m*3 19.1 C 0 km/h
777 07-06-2011 11:19:02 19.2 C 8.41 g/m*3 19.2 C 0 km/h
778 07-06-2011 11:31:02 19.3 C 8.46 g/m*3 19.3 C 0 km/h
779 07-06-2011 11:43:02 19.5 C 8.39 g/m*3 19.5 C 0 km/h
780 07-06-2011 11:55:02 19.7 C 8.66 g/m*3 19.7 C 0 km/h
781 07-06-2011 12:07:02 20.8 C 8.69 g/m*3 20.8 C 0 km/h
782 07-06-2011 12:19:02 21.1 C 8.66 g/m*3 21.1 C 0 km/h
783 07-06-2011 12:31:02 21.1 C 8.48 g/m*3 21.1 C 0 km/h
784 07-06-2011 12:43:02 20.9 C 8.74 g/m*3 20.9 C 0 km/h
785 07-06-2011 12:55:02 21.2 C 8.52 g/m*3 21.2 C 0 km/h
786 07-06-2011 13:07:01 21.9 C 8.68 g/m*3 21.9 C 0 km/h
787 07-06-2011 13:19:02 22.3 C 8.89 g/m*3 22.3 C 0 km/h
788 07-06-2011 13:31:01 25.7 C 8.38 g/m*3 25.7 C 0 km/h
789 07-06-2011 13:43:01 29.1 C 8.66 g/m*3 29.1 C 0 km/h
790 07-06-2011 13:55:02 30.5 C 8.1 g/m*3 30.5 C 0 km/h
791 07-06-2011 14:07:01 30.3 C 8.32 g/m*3 30.3 C 0 km/h
792 07-06-2011 14:19:01 30.3 C 8.01 g/m*3 30.3 C 0 km/h
793 07-06-2011 14:31:02 28.9 C 7.71 g/m*3 28.9 C 0 km/h
794 07-06-2011 14:43:02 29 C 8.04 g/m*3 29 C 0 km/h
795 07-06-2011 14:55:02 27.1 C 8.02 g/m*3 27.1 C 0 km/h
796 07-06-2011 15:07:02 30.3 C 8.32 g/m*3 30.3 C 0 km/h
797 07-06-2011 15:19:02 29.5 C 8.26 g/m*3 29.5 C 0 km/h
798 07-06-2011 15:31:02 30 C 8.49 g/m*3 30 C 0 km/h
799 07-06-2011 15:43:02 30.5 C 8.1 g/m*3 30.5 C 0 km/h
800 07-06-2011 15:55:02 28.6 C 7.59 g/m*3 28.6 C 0 km/h
Sensor: Nr:Datum:Temp:Abs-Feuchte:Windchill:Wind:
Aussen-T/F 801 07-06-2011 16:07:02 30 C 7.88 g/m*3 30 C 0 km/h
802 07-06-2011 16:19:02 31.8 C 7.01 g/m*3 31.8 C 0 km/h
803 07-06-2011 16:31:02 30.1 C 7.62 g/m*3 30.1 C 0 km/h
804 07-06-2011 16:43:02 31.7 C 6.98 g/m*3 31.7 C 0 km/h
805 07-06-2011 16:55:02 32.1 C 6.79 g/m*3 32.1 C 0 km/h
806 07-06-2011 17:07:02 31.5 C 7.23 g/m*3 31.5 C 0 km/h
807 07-06-2011 17:19:03 29.9 C 8.14 g/m*3 29.9 C 0 km/h
808 07-06-2011 17:31:02 30.6 C 7.83 g/m*3 30.6 C 0 km/h
809 07-06-2011 17:43:02 29.3 C 8.17 g/m*3 29.3 C 0 km/h
810 07-06-2011 17:55:02 27.1 C 11.13 g/m*3 27.1 C 0 km/h
811 07-06-2011 18:07:01 24.3 C 11.29 g/m*3 24.3 C 0 km/h
812 07-06-2011 18:19:02 25.2 C 11.64 g/m*3 25.2 C 0 km/h
813 07-06-2011 18:31:01 29.7 C 8.95 g/m*3 29.7 C 0 km/h
814 07-06-2011 18:43:01 29.5 C 8.85 g/m*3 29.5 C 0 km/h
815 07-06-2011 18:55:02 28.3 C 9.4 g/m*3 28.3 C 0 km/h
816 07-06-2011 19:07:01 27.3 C 11.25 g/m*3 27.3 C 0 km/h
817 07-06-2011 19:19:01 27.7 C 11.77 g/m*3 27.7 C 0 km/h
818 07-06-2011 19:31:02 26.5 C 11.77 g/m*3 26.5 C 0 km/h
819 07-06-2011 19:43:02 24.5 C 11.41 g/m*3 24.5 C 0 km/h
820 07-06-2011 19:55:02 23.1 C 11.58 g/m*3 23.1 C 0 km/h
821 07-06-2011 20:07:02 22.1 C 11.71 g/m*3 22.1 C 0 km/h
822 07-06-2011 20:19:02 21.9 C 11.96 g/m*3 21.9 C 0 km/h
823 07-06-2011 20:31:02 21.2 C 11.49 g/m*3 21.2 C 0 km/h
824 07-06-2011 20:43:02 20.5 C 11.39 g/m*3 20.5 C 0 km/h
825 07-06-2011 20:55:02 20 C 11.06 g/m*3 20 C 0 km/h
Sensor: Nr:Datum:Temp:Abs-Feuchte:Windchill:Wind:
Aussen-T/F 826 07-06-2011 21:07:03 19.7 C 11.21 g/m*3 19.7 C 0 km/h
827 07-06-2011 21:19:02 19.6 C 10.97 g/m*3 19.6 C 0 km/h
828 07-06-2011 21:31:04 19.4 C 11.35 g/m*3 19.4 C 0 km/h
829 07-06-2011 21:43:04 19.1 C 11.15 g/m*3 19.1 C 0 km/h
830 07-06-2011 21:55:02 19 C 11.41 g/m*3 19 C 0 km/h
831 07-06-2011 22:07:02 18.5 C 11.39 g/m*3 18.5 C 0 km/h
832 07-06-2011 22:19:02 18.9 C 11.5 g/m*3 18.9 C 0 km/h
833 07-06-2011 22:32:01 19.7 C 11.21 g/m*3 19.7 C 0 km/h
834 07-06-2011 22:44:01 19.5 C 10.91 g/m*3 19.5 C 0 km/h
835 07-06-2011 22:56:01 19 C 11.41 g/m*3 19 C 0 km/h
836 07-06-2011 23:08:01 18.6 C 11.78 g/m*3 18.6 C 0 km/h
837 07-06-2011 23:20:01 18.5 C 11.87 g/m*3 18.5 C 0 km/h
838 07-06-2011 23:32:01 19.5 C 10.07 g/m*3 19.5 C 0 km/h
839 07-06-2011 23:44:01 19.1 C 9.51 g/m*3 19.1 C 0 km/h
840 07-06-2011 23:56:02 17.7 C 10.11 g/m*3 17.7 C 0 km/h

Legende:
   Min
   Max


Maximal/Minimal-Werte vom 01.06.2011 - 07.06.2011

Sensor Min Max Avg
Temp
(Aussen-T/F)
8.6 °C
02-06-2011  06:02:20
33.2 °C
04-06-2011  14:04:02
19.17 °C
Abs-Feuchte
(Aussen-T/F)
3.74 g/m*3
02-06-2011  12:50:02
15.58 g/m*3
05-06-2011  14:29:01
9 g/m*3
Windchill
(Aussen-T/F)
8.6 C
02-06-2011  06:02:20
33.2 C
04-06-2011  14:04:02
19.14 C

Die Daten stammen von einer Davis Vantage Pro 2 Wetter-Station und werden unter Linux mit der Software wview2wettercgi und aufbereitet. Alle Angaben erfolgen ohne Gewähr für ihre Vollständigkeit oder Richtigkeit.
Kontakt: Rainer Krienke krienke@uni-koblenz.de . Meine Webseiten an der Uni Koblenz oder privat.
Version: $Revision: 0.78 $